Metar z połowy godziny Komunikat METAR ze strony awiacja.imgw.pl Metar G00 EPKK METAR EPKK 070030Z 25009KT 9999 FEW008 BKN017 02/01 Q1011 =